This is the latest recevied weather packets stored in our database for station/object KD8ZLZ. If no packets are shown the sender has not sent any weather packets the latest 10 day(s).
| Time | Temp. | Humidity | Pressure | Rain* | Wind** | Luminosity | Snow |
|---|---|---|---|---|---|---|---|
| 1777625450 | 5° C | 90% | 1014.4 hPa | 0 mm | - | - | - |
| 1777624271 | 5° C | 89% | 1014.7 hPa | 0.25 mm | - | - | - |
| 1777623930 | 5° C | 88% | 1014.7 hPa | 0.25 mm | - | - | - |
| 1777620631 | 5° C | 84% | 1014.6 hPa | 0.25 mm | - | - | - |
| 1777615551 | 5.56° C | 84% | 1014.6 hPa | 0.25 mm | - | - | - |
| 1777613430 | 6.11° C | 77% | 1015.3 hPa | 0.76 mm | - | - | - |
| 1777611031 | 6.11° C | 70% | 1015.3 hPa | 0.76 mm | - | - | - |
| 1777610730 | 6.67° C | 70% | 1015.3 hPa | 0.76 mm | - | - | - |
| 1777610430 | 6.67° C | 69% | 1015.3 hPa | 0.51 mm | - | - | - |
| 1777609230 | 6.67° C | 68% | 1015.3 hPa | 0.25 mm | - | - | - |
| 1777607430 | 7.78° C | 61% | 1015.6 hPa | 0 mm | - | - | - |
| 1777604730 | 9.44° C | 50% | 1015.7 hPa | 0 mm | - | - | - |
| 1777602930 | 9.44° C | 48% | 1015.3 hPa | 0 mm | - | - | - |
| 1777602051 | 9.44° C | 47% | 1015 hPa | 0 mm | - | - | - |
| 1777601730 | 9.44° C | 46% | 1015 hPa | 0 mm | - | - | - |
| 1777600530 | 9.44° C | 48% | 1015 hPa | 0 mm | - | - | - |
| 1777599030 | 10° C | 46% | 1014.6 hPa | 0 mm | - | - | - |
| 1777598150 | 10° C | 46% | 1014.6 hPa | 0 mm | - | - | - |
| 1777596930 | 10.56° C | 44% | 1014.6 hPa | 0 mm | - | - | - |
| 1777594850 | 10.56° C | 43% | 1014.6 hPa | 0 mm | - | - | - |
| 1777593030 | 11.11° C | 41% | 1014.6 hPa | 0.25 mm | - | - | - |
| 1777592430 | 11.11° C | 42% | 1014.6 hPa | 0.25 mm | - | - | - |
| 1777590930 | 11.67° C | 40% | 1014.6 hPa | 0 mm | - | - | - |
| 1777590051 | 12.22° C | 38% | 1014.7 hPa | 0 mm | - | - | - |
| 1777579530 | 12.78° C | 39% | 1014.7 hPa | 0 mm | - | - | - |
* Rain latest hour (hover to see other rain measurements)
** Current wind speed in m/s (hover to see current wind gust speed)